<?xml version='1.0' encoding='UTF-8'?><gpx version="1.1" creator="JPX - https://github.com/jenetics/jpx" xmlns="http://www.topografix.com/GPX/1/1"><trk><trkseg><trkpt lat="40.8338252" lon="16.5566815"><ele>439.0</ele><time>2026-03-23T08:30:43.538Z</time></trkpt><trkpt lat="40.8336791" lon="16.5565599"><ele>439.0</ele><time>2026-03-23T08:30:54.44Z</time></trkpt><trkpt lat="40.8337455" lon="16.5564166"><ele>439.0</ele><time>2026-03-23T08:31:06.375Z</time></trkpt><trkpt lat="40.8337853" lon="16.5562567"><ele>439.0</ele><time>2026-03-23T08:31:12.764Z</time></trkpt><trkpt lat="40.8337623" lon="16.5561164"><ele>439.6666666666667</ele><time>2026-03-23T08:31:32.011Z</time></trkpt><trkpt lat="40.833766" lon="16.5559905"><ele>440.33333333333337</ele><time>2026-03-23T08:31:38.419Z</time></trkpt><trkpt lat="40.8337377" lon="16.5556547"><ele>441.0</ele><time>2026-03-23T08:31:44.729Z</time></trkpt><trkpt lat="40.8336275" lon="16.5555206"><ele>441.0</ele><time>2026-03-23T08:32:32.413Z</time></trkpt><trkpt lat="40.8337756" lon="16.5556583"><ele>441.0</ele><time>2026-03-23T08:48:06.235Z</time></trkpt><trkpt lat="40.8337614" lon="16.5555735"><ele>441.0</ele><time>2026-03-23T08:48:12.424Z</time></trkpt><trkpt lat="40.8337125" lon="16.5551857"><ele>441.0</ele><time>2026-03-23T08:48:23.48Z</time></trkpt><trkpt lat="40.8336624" lon="16.5553722"><ele>441.0</ele><time>2026-03-23T08:48:42.839Z</time></trkpt><trkpt lat="40.8337418" lon="16.5556676"><ele>441.0</ele><time>2026-03-23T08:48:49.679Z</time></trkpt><trkpt lat="40.8337577" lon="16.5560602"><ele>440.33333333333337</ele><time>2026-03-23T08:48:56.455Z</time></trkpt><trkpt lat="40.833764" lon="16.5563718"><ele>439.6666666666667</ele><time>2026-03-23T08:49:03.199Z</time></trkpt><trkpt lat="40.8336789" lon="16.5564925"><ele>439.0</ele><time>2026-03-23T08:49:10.017Z</time></trkpt><trkpt lat="40.8335134" lon="16.5564211"><ele>440.0</ele><time>2026-03-23T08:49:21.797Z</time></trkpt><trkpt lat="40.8332544" lon="16.556264"><ele>441.0</ele><time>2026-03-23T08:49:28.378Z</time></trkpt><trkpt lat="40.8331705" lon="16.5561712"><ele>442.0</ele><time>2026-03-23T08:49:35.231Z</time></trkpt><trkpt lat="40.8331177" lon="16.5560318"><ele>443.0</ele><time>2026-03-23T08:49:46.475Z</time></trkpt><trkpt lat="40.8330374" lon="16.5559228"><ele>444.0</ele><time>2026-03-23T08:49:53.306Z</time></trkpt><trkpt lat="40.832801" lon="16.5555946"><ele>444.0</ele><time>2026-03-23T08:50:05.181Z</time></trkpt><trkpt lat="40.8329625" lon="16.5554335"><ele>444.0</ele><time>2026-03-23T08:50:11.786Z</time></trkpt><trkpt lat="40.8331419" lon="16.5558135"><ele>442.5</ele><time>2026-03-23T08:50:18.336Z</time></trkpt><trkpt lat="40.8334799" lon="16.5559187"><ele>441.0</ele><time>2026-03-23T08:50:24.577Z</time></trkpt><trkpt lat="40.8337679" lon="16.5561472"><ele>440.33333333333337</ele><time>2026-03-23T08:50:30.636Z</time></trkpt><trkpt lat="40.8337114" lon="16.5565007"><ele>439.6666666666667</ele><time>2026-03-23T08:50:36.806Z</time></trkpt><trkpt lat="40.8336771" lon="16.5567071"><ele>439.0</ele><time>2026-03-23T08:50:38.58Z</time></trkpt><trkpt lat="40.8338086" lon="16.5574619"><ele>439.0</ele><time>2026-03-23T08:50:47.881Z</time></trkpt><trkpt lat="40.8342531" lon="16.5570166"><ele>437.5</ele><time>2026-03-23T08:50:54.718Z</time></trkpt><trkpt lat="40.834575" lon="16.5567604"><ele>436.0</ele><time>2026-03-23T08:51:00.8Z</time></trkpt><trkpt lat="40.8348207" lon="16.5564474"><ele>436.0</ele><time>2026-03-23T08:51:07.078Z</time></trkpt><trkpt lat="40.8349271" lon="16.5563542"><ele>436.0</ele><time>2026-03-23T08:51:13.273Z</time></trkpt><trkpt lat="40.8347172" lon="16.5563696"><ele>436.0</ele><time>2026-03-23T08:51:37.962Z</time></trkpt><trkpt lat="40.8349197" lon="16.5563653"><ele>436.0</ele><time>2026-03-23T08:51:55.242Z</time></trkpt><trkpt lat="40.8345955" lon="16.5563482"><ele>436.0</ele><time>2026-03-23T08:52:33.67Z</time></trkpt><trkpt lat="40.8345638" lon="16.5562751"><ele>436.0</ele><time>2026-03-23T08:52:54.785Z</time></trkpt><trkpt lat="40.8344994" lon="16.5560185"><ele>436.0</ele><time>2026-03-23T08:53:03.579Z</time></trkpt><trkpt lat="40.8345218" lon="16.5561092"><ele>436.0</ele><time>2026-03-23T08:53:16.417Z</time></trkpt><trkpt lat="40.8345037" lon="16.5561964"><ele>436.0</ele><time>2026-03-23T08:53:17.859Z</time></trkpt><trkpt lat="40.8345844" lon="16.5562519"><ele>436.0</ele><time>2026-03-23T08:53:46.358Z</time></trkpt><trkpt lat="40.8345724" lon="16.5565005"><ele>436.0</ele><time>2026-03-23T08:53:53.438Z</time></trkpt><trkpt lat="40.8345033" lon="16.5568144"><ele>436.0</ele><time>2026-03-23T08:53:59.776Z</time></trkpt><trkpt lat="40.8344029" lon="16.5568811"><ele>436.0</ele><time>2026-03-23T08:54:06.055Z</time></trkpt><trkpt lat="40.8342733" lon="16.5570142"><ele>436.0</ele><time>2026-03-23T08:54:18.398Z</time></trkpt><trkpt lat="40.8340316" lon="16.5570898"><ele>437.0</ele><time>2026-03-23T08:54:24.662Z</time></trkpt><trkpt lat="40.8339721" lon="16.5569096"><ele>438.0</ele><time>2026-03-23T08:54:30.727Z</time></trkpt><trkpt lat="40.833821" lon="16.5567664"><ele>439.0</ele><time>2026-03-23T08:54:36.783Z</time></trkpt><trkpt lat="40.8336886" lon="16.5565397"><ele>439.0</ele><time>2026-03-23T08:54:42.991Z</time></trkpt><trkpt lat="40.8336173" lon="16.5564541"><ele>439.0</ele><time>2026-03-23T08:54:55.345Z</time></trkpt><trkpt lat="40.8335029" lon="16.5564213"><ele>439.0</ele><time>2026-03-23T08:55:01.408Z</time></trkpt><trkpt lat="40.8332805" lon="16.5562369"><ele>439.0</ele><time>2026-03-23T08:55:07.474Z</time></trkpt><trkpt lat="40.8335321" lon="16.5563898"><ele>439.0</ele><time>2026-03-23T08:55:37.958Z</time></trkpt><trkpt lat="40.8336284" lon="16.5565229"><ele>439.0</ele><time>2026-03-23T08:55:44.237Z</time></trkpt><trkpt lat="40.8335684" lon="16.5564066"><ele>441.5</ele><time>2026-03-23T08:56:06.036Z</time></trkpt><trkpt lat="40.8332171" lon="16.5561409"><ele>444.0</ele><time>2026-03-23T08:56:13.472Z</time></trkpt><trkpt lat="40.8331679" lon="16.5560381"><ele>444.0</ele><time>2026-03-23T08:56:26.02Z</time></trkpt><trkpt lat="40.8330986" lon="16.5559809"><ele>444.0</ele><time>2026-03-23T08:56:39.133Z</time></trkpt><trkpt lat="40.8330045" lon="16.5559399"><ele>444.0</ele><time>2026-03-23T08:56:45.387Z</time></trkpt><trkpt lat="40.8329482" lon="16.5558799"><ele>444.0</ele><time>2026-03-23T08:56:47.352Z</time></trkpt><trkpt lat="40.8330692" lon="16.555941"><ele>444.0</ele><time>2026-03-23T08:56:57.255Z</time></trkpt><trkpt lat="40.8331988" lon="16.5561128"><ele>443.0</ele><time>2026-03-23T08:57:09.804Z</time></trkpt><trkpt lat="40.8332563" lon="16.5562325"><ele>442.0</ele><time>2026-03-23T08:57:16.064Z</time></trkpt><trkpt lat="40.8336369" lon="16.5564142"><ele>442.0</ele><time>2026-03-23T08:57:22.346Z</time></trkpt><trkpt lat="40.8334617" lon="16.5564147"><ele>442.0</ele><time>2026-03-23T08:57:34.409Z</time></trkpt><trkpt lat="40.8331972" lon="16.5560853"><ele>442.0</ele><time>2026-03-23T08:57:41.288Z</time></trkpt><trkpt lat="40.8331277" lon="16.556019"><ele>442.0</ele><time>2026-03-23T08:57:48.2Z</time></trkpt><trkpt lat="40.8332557" lon="16.556237"><ele>442.0</ele><time>2026-03-23T08:57:54.486Z</time></trkpt><trkpt lat="40.8335568" lon="16.5563995"><ele>441.6666666666667</ele><time>2026-03-23T08:58:00.769Z</time></trkpt><trkpt lat="40.8337442" lon="16.5563955"><ele>441.33333333333337</ele><time>2026-03-23T08:58:06.8Z</time></trkpt><trkpt lat="40.8338166" lon="16.556221"><ele>441.0</ele><time>2026-03-23T08:58:17.985Z</time></trkpt><trkpt lat="40.8337054" lon="16.5560894"><ele>441.0</ele><time>2026-03-23T08:58:24.687Z</time></trkpt><trkpt lat="40.8335444" lon="16.555906"><ele>441.0</ele><time>2026-03-23T08:58:30.218Z</time></trkpt><trkpt lat="40.8333617" lon="16.5553998"><ele>444.0</ele><time>2026-03-23T08:58:36.833Z</time></trkpt><trkpt lat="40.8331236" lon="16.5560065"><ele>444.0</ele><time>2026-03-23T08:58:43.651Z</time></trkpt><trkpt lat="40.8332277" lon="16.5561197"><ele>444.0</ele><time>2026-03-23T08:58:50.528Z</time></trkpt><trkpt lat="40.8333252" lon="16.5562497"><ele>444.0</ele><time>2026-03-23T08:58:52.135Z</time></trkpt><trkpt lat="40.833681" lon="16.5564594"><ele>443.0</ele><time>2026-03-23T08:59:01.59Z</time></trkpt><trkpt lat="40.833809" lon="16.5562625"><ele>442.0</ele><time>2026-03-23T08:59:08.118Z</time></trkpt><trkpt lat="40.8336821" lon="16.5560176"><ele>441.0</ele><time>2026-03-23T08:59:14.171Z</time></trkpt><trkpt lat="40.8336642" lon="16.5558769"><ele>442.5</ele><time>2026-03-23T08:59:36.027Z</time></trkpt><trkpt lat="40.8332971" lon="16.5556974"><ele>444.0</ele><time>2026-03-23T08:59:44.8Z</time></trkpt><trkpt lat="40.8331466" lon="16.556002"><ele>444.0</ele><time>2026-03-23T08:59:51.618Z</time></trkpt><trkpt lat="40.8330884" lon="16.5560382"><ele>444.0</ele><time>2026-03-23T09:00:03.392Z</time></trkpt><trkpt lat="40.8329208" lon="16.5558294"><ele>444.0</ele><time>2026-03-23T09:00:10.224Z</time></trkpt><trkpt lat="40.8326894" lon="16.5558062"><ele>444.66666666666663</ele><time>2026-03-23T09:00:16.125Z</time></trkpt><trkpt lat="40.832626" lon="16.5560648"><ele>445.3333333333333</ele><time>2026-03-23T09:00:22.573Z</time></trkpt><trkpt lat="40.832679" lon="16.5562789"><ele>446.0</ele><time>2026-03-23T09:00:29.217Z</time></trkpt><trkpt lat="40.833013" lon="16.5565148"><ele>444.0</ele><time>2026-03-23T09:00:35.274Z</time></trkpt><trkpt lat="40.8331696" lon="16.556683"><ele>442.0</ele><time>2026-03-23T09:00:41.106Z</time></trkpt><trkpt lat="40.8338351" lon="16.5567391"><ele>442.0</ele><time>2026-03-23T09:00:59.239Z</time></trkpt><trkpt lat="40.8336388" lon="16.5564542"><ele>442.0</ele><time>2026-03-23T09:01:07.691Z</time></trkpt><trkpt lat="40.8334322" lon="16.556377"><ele>442.0</ele><time>2026-03-23T09:01:11.698Z</time></trkpt><trkpt lat="40.8332437" lon="16.5561395"><ele>442.0</ele><time>2026-03-23T09:01:19.537Z</time></trkpt><trkpt lat="40.833469" lon="16.5563956"><ele>440.5</ele><time>2026-03-23T09:01:26.347Z</time></trkpt><trkpt lat="40.8336338" lon="16.5564398"><ele>439.0</ele><time>2026-03-23T09:01:32.608Z</time></trkpt><trkpt lat="40.8338079" lon="16.5567735"><ele>439.0</ele><time>2026-03-23T09:01:38.644Z</time></trkpt><trkpt lat="40.8338289" lon="16.5573616"><ele>439.0</ele><time>2026-03-23T09:01:44.699Z</time></trkpt><trkpt lat="40.8342948" lon="16.5568723"><ele>437.5</ele><time>2026-03-23T09:01:50.925Z</time></trkpt><trkpt lat="40.8345231" lon="16.55672"><ele>436.0</ele><time>2026-03-23T09:01:57.191Z</time></trkpt><trkpt lat="40.8346353" lon="16.5563626"><ele>436.0</ele><time>2026-03-23T09:02:03.461Z</time></trkpt><trkpt lat="40.8345384" lon="16.55616"><ele>436.0</ele><time>2026-03-23T09:02:09.805Z</time></trkpt><trkpt lat="40.8343298" lon="16.5561577"><ele>436.0</ele><time>2026-03-23T09:02:16.037Z</time></trkpt><trkpt lat="40.83414" lon="16.5560568"><ele>436.0</ele><time>2026-03-23T09:02:22.197Z</time></trkpt><trkpt lat="40.8344379" lon="16.5557549"><ele>436.0</ele><time>2026-03-23T09:02:33.664Z</time></trkpt><trkpt lat="40.8344253" lon="16.5555449"><ele>438.5</ele><time>2026-03-23T09:02:40.48Z</time></trkpt><trkpt lat="40.8342298" lon="16.5553886"><ele>441.0</ele><time>2026-03-23T09:02:47.402Z</time></trkpt><trkpt lat="40.8338781" lon="16.5554303"><ele>441.0</ele><time>2026-03-23T09:02:53.638Z</time></trkpt><trkpt lat="40.8337991" lon="16.5555448"><ele>441.0</ele><time>2026-03-23T09:03:00.185Z</time></trkpt><trkpt lat="40.8337493" lon="16.5559757"><ele>441.0</ele><time>2026-03-23T09:03:12.606Z</time></trkpt><trkpt lat="40.8338389" lon="16.5560945"><ele>441.0</ele><time>2026-03-23T09:03:18.791Z</time></trkpt><trkpt lat="40.8336355" lon="16.5559489"><ele>441.0</ele><time>2026-03-23T09:03:20.235Z</time></trkpt><trkpt lat="40.8333497" lon="16.5557537"><ele>441.75</ele><time>2026-03-23T09:03:29.994Z</time></trkpt><trkpt lat="40.833187" lon="16.5559227"><ele>442.5</ele><time>2026-03-23T09:03:36.428Z</time></trkpt><trkpt lat="40.8331172" lon="16.5560065"><ele>443.25</ele><time>2026-03-23T09:03:39.268Z</time></trkpt><trkpt lat="40.8331737" lon="16.5560637"><ele>444.0</ele><time>2026-03-23T09:09:21.663Z</time></trkpt><trkpt lat="40.8331875" lon="16.5561793"><ele>444.0</ele><time>2026-03-23T09:09:28.077Z</time></trkpt><trkpt lat="40.8332126" lon="16.5560751"><ele>444.0</ele><time>2026-03-23T09:11:16.376Z</time></trkpt><trkpt lat="40.8331236" lon="16.5560334"><ele>444.0</ele><time>2026-03-23T09:11:18.004Z</time></trkpt><trkpt lat="40.8329963" lon="16.5559152"><ele>444.0</ele><time>2026-03-23T09:11:27.826Z</time></trkpt><trkpt lat="40.8327624" lon="16.5555744"><ele>443.0</ele><time>2026-03-23T09:11:40.336Z</time></trkpt><trkpt lat="40.8328477" lon="16.5550912"><ele>442.0</ele><time>2026-03-23T09:11:46.316Z</time></trkpt><trkpt lat="40.8326808" lon="16.5550933"><ele>443.33333333333337</ele><time>2026-03-23T09:11:53.235Z</time></trkpt><trkpt lat="40.8325174" lon="16.5551929"><ele>444.66666666666663</ele><time>2026-03-23T09:11:56.71Z</time></trkpt><trkpt lat="40.8323758" lon="16.5551582"><ele>446.0</ele><time>2026-03-23T09:12:04.331Z</time></trkpt><trkpt lat="40.8321278" lon="16.5553067"><ele>446.0</ele><time>2026-03-23T09:12:10.862Z</time></trkpt><trkpt lat="40.8321456" lon="16.5554083"><ele>446.0</ele><time>2026-03-23T09:12:16.929Z</time></trkpt><trkpt lat="40.8319088" lon="16.5553495"><ele>446.0</ele><time>2026-03-23T09:12:22.968Z</time></trkpt><trkpt lat="40.8318334" lon="16.5551634"><ele>447.5</ele><time>2026-03-23T09:12:28.73Z</time></trkpt><trkpt lat="40.8316908" lon="16.5548374"><ele>449.0</ele><time>2026-03-23T09:12:34.257Z</time></trkpt><trkpt lat="40.8320608" lon="16.5536795"><ele>462.0</ele><time>2026-03-23T09:12:35.701Z</time></trkpt><trkpt lat="40.8300221" lon="16.5538751"><ele>462.0</ele><time>2026-03-23T09:12:45.691Z</time></trkpt><trkpt lat="40.8296788" lon="16.5537508"><ele>462.0</ele><time>2026-03-23T09:12:52.175Z</time></trkpt><trkpt lat="40.8302017" lon="16.554057"><ele>462.0</ele><time>2026-03-23T09:12:58.438Z</time></trkpt><trkpt lat="40.8301192" lon="16.5540088"><ele>462.0</ele><time>2026-03-23T09:13:16.419Z</time></trkpt><trkpt lat="40.829776" lon="16.5538413"><ele>462.0</ele><time>2026-03-23T09:13:22.701Z</time></trkpt><trkpt lat="40.830127" lon="16.5540882"><ele>462.0</ele><time>2026-03-23T09:13:34.769Z</time></trkpt></trkseg></trk></gpx>